Time;durP1;ratioP1;P1;durP2;ratioP2;P2;SDS_P1;SDS_P2;PMS_P1;PMS_P2;Temp;Humidity;BMP_temperature;BMP_pressure;BME280_temperature;BME280_humidity;BME280_pressure;Samples;Min_cycle;Max_cycle;Signal;HPM_P1;HPM_P2
2021/01/22 00:02:34;;;;;;;2.05;0.40;;;10.40;99.90;;;;;;10360896;28;20054;-73
2021/01/22 00:07:36;;;;;;;0.60;0.30;;;10.40;99.90;;;;;;10375201;28;20412;-74
2021/01/22 00:12:38;;;;;;;1.60;0.50;;;10.50;99.90;;;;;;10373775;28;20656;-74
2021/01/22 00:17:39;;;;;;;2.28;0.30;;;10.50;99.80;;;;;;10377576;28;20058;-73
2021/01/22 00:22:40;;;;;;;1.35;0.28;;;10.50;99.90;;;;;;10371212;28;20057;-73
2021/01/22 00:27:41;;;;;;;0.20;0.20;;;10.40;99.90;;;;;;10377656;28;20385;-73
2021/01/22 00:32:43;;;;;;;1.85;0.30;;;10.30;99.90;;;;;;10371119;28;20050;-73
2021/01/22 00:37:44;;;;;;;0.75;0.30;;;10.40;99.90;;;;;;10332120;28;20301;-72
2021/01/22 00:42:45;;;;;;;0.57;0.38;;;10.40;99.90;;;;;;10365791;28;20053;-72
2021/01/22 00:47:46;;;;;;;0.80;0.30;;;10.30;99.90;;;;;;10370575;28;20045;-72
2021/01/22 00:52:48;;;;;;;3.10;0.40;;;10.40;99.90;;;;;;10363827;28;20111;-72
2021/01/22 00:57:49;;;;;;;2.25;0.40;;;10.40;99.90;;;;;;10344182;28;20053;-72
2021/01/22 01:02:51;;;;;;;1.33;0.30;;;10.40;99.90;;;;;;10368144;28;20689;-72
2021/01/22 01:07:52;;;;;;;6.03;1.05;;;10.40;99.90;;;;;;10373674;28;20054;-73
2021/01/22 01:12:53;;;;;;;1.92;0.50;;;10.40;99.90;;;;;;10362480;28;20065;-72
2021/01/22 01:17:54;;;;;;;1.80;0.38;;;10.40;99.90;;;;;;10332039;28;20065;-72
2021/01/22 01:22:55;;;;;;;2.35;0.32;;;10.50;99.80;;;;;;10335768;28;20463;-73
2021/01/22 01:27:57;;;;;;;2.03;0.30;;;10.40;99.80;;;;;;10377017;28;20045;-72
2021/01/22 01:32:58;;;;;;;1.35;0.30;;;10.50;99.20;;;;;;10339555;28;20053;-72
2021/01/22 01:37:59;;;;;;;3.25;0.95;;;10.60;98.70;;;;;;10337560;28;20095;-72
2021/01/22 01:43:02;;;;;;;1.60;0.30;;;10.60;98.60;;;;;;10334263;28;20046;-72
2021/01/22 01:48:04;;;;;;;1.80;0.38;;;10.50;98.90;;;;;;10338412;28;20056;-72
2021/01/22 01:53:07;;;;;;;1.05;0.30;;;10.40;99.40;;;;;;10335475;28;20041;-72
2021/01/22 01:58:08;;;;;;;1.38;0.20;;;10.30;99.90;;;;;;10350945;28;20099;-72
2021/01/22 02:03:10;;;;;;;1.65;0.30;;;10.10;99.90;;;;;;10357395;28;20053;-72
2021/01/22 02:08:13;;;;;;;1.05;0.40;;;10.10;99.90;;;;;;10328426;28;20062;-73
2021/01/22 02:13:16;;;;;;;0.52;0.52;;;10.00;99.90;;;;;;10369197;28;20052;-72
2021/01/22 02:18:17;;;;;;;2.95;0.40;;;9.90;99.90;;;;;;10357001;28;20119;-72
2021/01/22 02:23:22;;;;;;;2.15;0.38;;;9.80;99.90;;;;;;10372647;28;20080;-72
2021/01/22 02:28:23;;;;;;;1.23;0.47;;;9.80;99.90;;;;;;10320976;28;20053;-72
2021/01/22 02:33:25;;;;;;;2.65;0.43;;;9.70;99.90;;;;;;10334617;28;20072;-72
2021/01/22 02:38:27;;;;;;;2.42;0.43;;;9.80;99.90;;;;;;10328564;28;20058;-72
2021/01/22 02:43:29;;;;;;;0.68;0.20;;;9.80;99.90;;;;;;10341015;28;20129;-72
2021/01/22 02:48:32;;;;;;;2.25;0.30;;;9.80;99.90;;;;;;10380219;28;20049;-73
2021/01/22 02:53:33;;;;;;;0.85;0.10;;;9.80;99.90;;;;;;10360814;28;20766;-72
2021/01/22 02:58:44;;;;;;;1.00;0.20;;;9.80;99.90;;;;;;10364439;28;20057;-72
2021/01/22 03:04:02;;;;;;;0.40;0.20;;;9.80;99.90;;;;;;10277244;28;20119;-72
2021/01/22 03:09:03;;;;;;;;;;;9.80;99.90;;;;;;10383351;28;20045;-72
2021/01/22 03:14:06;;;;;;;0.32;0.10;;;9.70;99.90;;;;;;10352679;28;19929;-72
2021/01/22 03:19:07;;;;;;;0.30;0.20;;;9.70;99.90;;;;;;10361960;28;20052;-72
2021/01/22 03:24:08;;;;;;;0.93;0.10;;;9.70;99.90;;;;;;10369779;28;20054;-71
2021/01/22 03:29:09;;;;;;;0.43;0.10;;;9.60;99.90;;;;;;10316157;28;20056;-72
2021/01/22 03:34:11;;;;;;;0.68;0.20;;;9.60;99.90;;;;;;10342861;28;20188;-72
2021/01/22 03:39:12;;;;;;;1.52;0.20;;;9.70;99.90;;;;;;10373352;28;20068;-72
2021/01/22 03:44:15;;;;;;;2.17;0.40;;;9.60;99.90;;;;;;10377358;28;20107;-72
2021/01/22 03:49:17;;;;;;;2.22;0.30;;;9.70;99.90;;;;;;10346301;28;20058;-72
2021/01/22 03:54:18;;;;;;;2.58;0.20;;;9.60;99.90;;;;;;10351083;28;20114;-72
2021/01/22 03:59:19;;;;;;;2.00;0.20;;;9.70;99.90;;;;;;10345604;28;20080;-73
2021/01/22 04:04:20;;;;;;;2.65;0.28;;;9.70;99.90;;;;;;10349859;28;20054;-72
2021/01/22 04:09:33;;;;;;;1.80;0.20;;;9.70;99.90;;;;;;10373425;28;20068;-72
2021/01/22 04:14:34;;;;;;;1.73;0.30;;;9.80;99.90;;;;;;10344501;28;20053;-72
2021/01/22 04:19:36;;;;;;;0.40;0.20;;;9.80;99.90;;;;;;10360316;28;20037;-72
2021/01/22 04:24:37;;;;;;;3.15;0.22;;;9.90;99.90;;;;;;10356684;28;20119;-72
2021/01/22 04:29:38;;;;;;;2.88;0.73;;;10.00;99.90;;;;;;10358886;28;20049;-72
2021/01/22 04:34:39;;;;;;;2.75;0.20;;;10.00;99.90;;;;;;10365255;28;20050;-72
2021/01/22 04:39:41;;;;;;;1.65;0.25;;;10.10;99.90;;;;;;10375875;28;20057;-72
2021/01/22 04:44:42;;;;;;;1.50;0.28;;;10.10;99.90;;;;;;10374334;28;20049;-72
2021/01/22 04:49:48;;;;;;;1.63;0.30;;;10.20;99.90;;;;;;10357094;28;20069;-72
2021/01/22 04:54:51;;;;;;;0.45;0.20;;;10.10;99.90;;;;;;10379376;28;20050;-72
2021/01/22 04:59:53;;;;;;;1.92;0.20;;;10.10;99.90;;;;;;10357632;28;20073;-72
2021/01/22 05:04:56;;;;;;;1.77;0.30;;;10.10;99.90;;;;;;10358583;28;20104;-72
2021/01/22 05:09:58;;;;;;;3.13;0.30;;;10.10;99.90;;;;;;10349014;28;20057;-72
2021/01/22 05:15:14;;;;;;;2.30;0.60;;;10.10;99.90;;;;;;10356326;28;20046;-72
2021/01/22 05:20:39;;;;;;;6.50;0.80;;;10.10;99.90;;;;;;10326869;28;20376;-71
2021/01/22 05:26:01;;;;;;;1.58;0.35;;;10.10;99.90;;;;;;10342728;28;20050;-72
2021/01/22 05:31:06;;;;;;;2.58;0.40;;;10.10;99.90;;;;;;10346713;28;20046;-72
2021/01/22 05:36:29;;;;;;;1.85;0.30;;;10.20;99.90;;;;;;10330706;28;20112;-71
2021/01/22 05:41:31;;;;;;;1.45;0.52;;;10.10;99.90;;;;;;10373340;28;20042;-72
2021/01/22 05:46:32;;;;;;;1.10;0.25;;;10.10;99.90;;;;;;10374202;28;20368;-72
2021/01/22 05:51:34;;;;;;;0.93;0.15;;;10.10;99.90;;;;;;10331387;28;20053;-72
2021/01/22 05:56:35;;;;;;;0.57;0.20;;;10.10;99.90;;;;;;10336043;28;20049;-72
2021/01/22 06:01:37;;;;;;;1.67;0.22;;;10.10;99.90;;;;;;10373842;28;20045;-72
2021/01/22 06:06:38;;;;;;;1.13;0.20;;;10.10;99.90;;;;;;10349817;28;20046;-71
2021/01/22 06:11:42;;;;;;;4.45;0.20;;;10.10;99.90;;;;;;10356583;28;20058;-71
2021/01/22 06:16:45;;;;;;;3.05;0.30;;;9.90;99.90;;;;;;10358692;28;20054;-71
2021/01/22 06:22:03;;;;;;;3.50;0.45;;;9.80;99.90;;;;;;10356174;28;20119;-71
2021/01/22 06:27:08;;;;;;;0.20;0.00;;;9.60;99.90;;;;;;10347295;28;20068;-70
2021/01/22 06:32:09;;;;;;;1.02;0.10;;;7.70;99.90;;;;;;10345673;28;20050;-72
2021/01/22 06:37:11;;;;;;;0.00;0.00;;;6.50;99.90;;;;;;10373588;28;20483;-73
2021/01/22 06:42:13;;;;;;;0.00;0.00;;;5.90;99.90;;;;;;10372671;28;20153;-63
2021/01/22 06:47:15;;;;;;;0.00;0.00;;;5.70;99.90;;;;;;10351430;28;20049;-64
2021/01/22 06:52:16;;;;;;;0.43;0.00;;;5.50;99.90;;;;;;10345168;28;20046;-64
2021/01/22 06:57:17;;;;;;;0.20;0.10;;;5.30;99.90;;;;;;10330566;28;20058;-69
2021/01/22 07:02:40;;;;;;;0.20;0.10;;;5.20;99.90;;;;;;10363712;28;20053;-68
2021/01/22 07:07:46;;;;;;;0.13;0.10;;;5.10;99.90;;;;;;10375040;28;20057;-68
2021/01/22 07:12:47;;;;;;;0.10;0.10;;;4.90;99.90;;;;;;10376482;28;20057;-68
2021/01/22 07:17:51;;;;;;;0.00;0.00;;;4.90;99.90;;;;;;10383210;28;22517;-68
2021/01/22 07:22:54;;;;;;;0.10;0.00;;;4.90;99.90;;;;;;10401133;28;20068;-69
2021/01/22 07:27:55;;;;;;;2.38;0.20;;;4.80;99.90;;;;;;10384160;28;20053;-66
2021/01/22 07:32:56;;;;;;;0.00;0.00;;;4.80;99.90;;;;;;10367302;28;20057;-66
2021/01/22 07:37:58;;;;;;;0.10;0.10;;;4.80;99.90;;;;;;10358924;28;20049;-67
2021/01/22 07:43:13;;;;;;;0.70;0.00;;;4.90;99.90;;;;;;10371372;28;20041;-65
2021/01/22 07:48:27;;;;;;;0.22;0.00;;;4.80;99.90;;;;;;10376784;28;20103;-65
2021/01/22 07:53:29;;;;;;;0.00;0.00;;;4.80;99.90;;;;;;10393791;28;20049;-67
2021/01/22 07:58:38;;;;;;;0.10;0.00;;;4.80;99.90;;;;;;10385326;28;20053;-65
2021/01/22 08:03:43;;;;;;;0.13;0.08;;;4.90;99.90;;;;;;10385807;28;20439;-65
2021/01/22 08:08:44;;;;;;;1.02;0.50;;;5.00;99.90;;;;;;10392086;28;20068;-65
2021/01/22 08:13:46;;;;;;;0.40;0.10;;;5.00;99.90;;;;;;10387676;28;20136;-66
2021/01/22 08:18:47;;;;;;;0.20;0.10;;;5.00;99.90;;;;;;10393441;28;20504;-67
2021/01/22 08:23:48;;;;;;;1.85;0.30;;;5.00;99.90;;;;;;10374339;28;20053;-67
2021/01/22 08:28:53;;;;;;;1.63;0.30;;;5.10;99.90;;;;;;10373121;28;20046;-66
2021/01/22 08:33:55;;;;;;;0.60;0.20;;;5.10;99.90;;;;;;10351229;28;20060;-66
2021/01/22 08:38:57;;;;;;;2.75;0.80;;;5.10;99.90;;;;;;10372350;28;20095;-66
2021/01/22 08:43:59;;;;;;;0.40;0.15;;;5.10;99.90;;;;;;10394478;28;20053;-66
2021/01/22 08:49:11;;;;;;;3.35;0.68;;;5.10;99.90;;;;;;10388305;28;20045;-66
2021/01/22 08:54:12;;;;;;;0.40;0.15;;;5.10;99.90;;;;;;10368075;28;20047;-66
2021/01/22 08:59:14;;;;;;;0.40;0.10;;;5.20;99.90;;;;;;10367948;28;20053;-66
2021/01/22 09:04:33;;;;;;;0.63;0.40;;;5.10;99.90;;;;;;10373316;28;20056;-66
2021/01/22 09:09:48;;;;;;;0.93;0.40;;;5.10;99.90;;;;;;10369638;28;20054;-66
2021/01/22 09:14:55;;;;;;;0.30;0.03;;;5.30;99.90;;;;;;10317414;28;20058;-66
2021/01/22 09:19:58;;;;;;;1.00;0.30;;;5.40;99.90;;;;;;10379321;28;20431;-66
2021/01/22 09:25:01;;;;;;;1.17;0.17;;;5.50;99.90;;;;;;10393952;28;20416;-65
2021/01/22 09:30:06;;;;;;;1.10;0.45;;;5.60;99.90;;;;;;10332393;28;20100;-65
2021/01/22 09:35:07;;;;;;;1.67;0.63;;;5.70;99.90;;;;;;10387914;28;20080;-67
2021/01/22 09:40:12;;;;;;;1.08;0.50;;;5.80;99.90;;;;;;10382880;28;20473;-68
2021/01/22 09:45:14;;;;;;;2.03;0.63;;;5.70;99.90;;;;;;10367065;28;20033;-69
2021/01/22 09:50:17;;;;;;;2.45;0.70;;;5.70;99.90;;;;;;10383191;28;20050;-67
2021/01/22 09:55:19;;;;;;;0.93;0.70;;;5.70;99.90;;;;;;10347772;28;20050;-67
2021/01/22 10:00:21;;;;;;;3.38;0.70;;;5.60;99.90;;;;;;10383719;28;20053;-67
2021/01/22 10:05:23;;;;;;;5.40;1.88;;;5.70;99.90;;;;;;10400857;28;20045;-67
2021/01/22 10:10:24;;;;;;;2.45;1.33;;;5.70;99.90;;;;;;10386449;28;20053;-66
2021/01/22 10:15:25;;;;;;;1.75;0.85;;;5.70;99.90;;;;;;10386254;28;20053;-67
2021/01/22 10:20:26;;;;;;;1.10;0.30;;;5.80;99.90;;;;;;10377613;28;20046;-67
2021/01/22 10:25:28;;;;;;;0.52;0.20;;;5.80;99.90;;;;;;10385350;28;20049;-64
2021/01/22 10:30:29;;;;;;;1.52;0.57;;;5.70;99.90;;;;;;10390212;28;20136;-65
2021/01/22 10:35:30;;;;;;;2.75;0.60;;;5.80;99.90;;;;;;10363630;28;20045;-66
2021/01/22 10:40:32;;;;;;;2.05;0.30;;;6.00;99.90;;;;;;10377421;28;20052;-66
2021/01/22 10:45:33;;;;;;;1.50;0.30;;;5.90;99.90;;;;;;10387432;28;20563;-67
2021/01/22 10:50:34;;;;;;;2.58;0.30;;;5.90;99.90;;;;;;10390100;28;20053;-67
2021/01/22 10:55:36;;;;;;;5.28;1.58;;;5.70;99.90;;;;;;10389741;28;20454;-66
2021/01/22 11:00:37;;;;;;;8.60;2.00;;;5.70;99.90;;;;;;10377615;28;20081;-66
2021/01/22 11:05:39;;;;;;;3.22;0.88;;;5.80;99.90;;;;;;10398636;28;20049;-66
2021/01/22 11:10:40;;;;;;;1.77;0.20;;;5.70;99.90;;;;;;10382370;28;20411;-66
2021/01/22 11:15:42;;;;;;;0.40;0.20;;;5.70;99.90;;;;;;10399288;28;20068;-66
2021/01/22 11:20:43;;;;;;;0.43;0.28;;;5.70;99.90;;;;;;10375738;28;20133;-66
2021/01/22 11:25:44;;;;;;;0.20;0.10;;;5.80;99.90;;;;;;10394978;28;20088;-66
2021/01/22 11:30:46;;;;;;;0.55;0.10;;;5.80;99.90;;;;;;10390302;28;20479;-66
2021/01/22 11:35:47;;;;;;;0.22;0.10;;;5.80;99.90;;;;;;10393456;28;20052;-66
2021/01/22 11:40:48;;;;;;;0.20;0.20;;;5.80;99.90;;;;;;10387486;28;20053;-66
2021/01/22 11:45:49;;;;;;;1.35;0.30;;;5.70;99.90;;;;;;10375822;28;20065;-66
2021/01/22 11:50:51;;;;;;;0.60;0.20;;;5.70;99.90;;;;;;10362176;28;20066;-65
2021/01/22 11:55:52;;;;;;;0.68;0.10;;;5.80;99.90;;;;;;10400586;28;20114;-66
2021/01/22 12:00:53;;;;;;;0.32;0.30;;;5.80;99.90;;;;;;10380257;28;20425;-67
2021/01/22 12:05:54;;;;;;;2.13;0.65;;;5.80;99.90;;;;;;10348724;28;20065;-66
2021/01/22 12:10:57;;;;;;;1.98;0.30;;;5.80;99.90;;;;;;10378113;28;20045;-66
2021/01/22 12:15:58;;;;;;;1.35;0.20;;;5.90;99.90;;;;;;10367186;28;20053;-66
2021/01/22 12:20:59;;;;;;;0.50;0.30;;;6.00;99.90;;;;;;10350069;28;20054;-66
2021/01/22 12:26:01;;;;;;;1.05;0.50;;;5.90;99.90;;;;;;10363445;28;20076;-66
2021/01/22 12:31:04;;;;;;;0.20;0.10;;;6.10;99.90;;;;;;10374015;28;20057;-66
2021/01/22 12:36:07;;;;;;;0.20;0.10;;;6.10;99.90;;;;;;10393111;28;20052;-65
2021/01/22 12:41:08;;;;;;;0.10;0.10;;;6.20;99.90;;;;;;10375568;28;20050;-66
2021/01/22 12:46:09;;;;;;;0.40;0.15;;;6.30;99.90;;;;;;10386101;28;20049;-66
2021/01/22 12:51:10;;;;;;;0.57;0.20;;;6.50;99.90;;;;;;10395447;28;20049;-65
2021/01/22 12:56:13;;;;;;;0.85;0.10;;;6.60;99.90;;;;;;10410038;28;20041;-66
2021/01/22 13:01:14;;;;;;;1.05;0.20;;;6.60;99.90;;;;;;10399855;28;20044;-66
2021/01/22 13:06:15;;;;;;;0.70;0.17;;;6.10;99.90;;;;;;10398770;28;20411;-66
2021/01/22 13:11:16;;;;;;;0.63;0.22;;;6.30;99.90;;;;;;10360352;28;20104;-66
2021/01/22 13:16:20;;;;;;;0.40;0.28;;;6.30;99.90;;;;;;10394962;28;20122;-67
2021/01/22 13:21:22;;;;;;;1.40;0.50;;;6.40;99.90;;;;;;10398535;28;20133;-66
2021/01/22 13:26:23;;;;;;;0.75;0.40;;;6.30;99.90;;;;;;10401926;28;20107;-67
2021/01/22 13:31:24;;;;;;;1.35;0.70;;;6.40;99.90;;;;;;10396312;28;20041;-67
2021/01/22 13:36:26;;;;;;;2.08;0.40;;;6.40;99.90;;;;;;10399775;28;20073;-67
2021/01/22 13:41:27;;;;;;;0.57;0.30;;;6.30;99.90;;;;;;10395328;28;20060;-67
2021/01/22 13:46:29;;;;;;;1.55;0.50;;;5.90;99.90;;;;;;10401132;28;20108;-65
2021/01/22 13:51:30;;;;;;;1.40;0.65;;;5.90;99.90;;;;;;10394687;28;20049;-65
2021/01/22 13:56:31;;;;;;;0.73;0.35;;;5.90;99.90;;;;;;10401688;28;20535;-64
2021/01/22 14:01:32;;;;;;;2.60;0.50;;;5.90;99.90;;;;;;10396703;28;20049;-62
2021/01/22 14:06:36;;;;;;;0.82;0.40;;;5.90;99.90;;;;;;10383587;28;20499;-65
2021/01/22 14:11:37;;;;;;;3.28;0.60;;;5.90;99.90;;;;;;10390228;28;20107;-65
2021/01/22 14:16:39;;;;;;;0.82;0.40;;;6.00;99.90;;;;;;10375946;28;20059;-65
2021/01/22 14:21:41;;;;;;;1.42;0.60;;;6.00;99.90;;;;;;10380515;28;20045;-66
2021/01/22 14:26:42;;;;;;;2.63;0.43;;;6.00;99.90;;;;;;10372115;28;20052;-65
2021/01/22 14:31:43;;;;;;;1.27;0.70;;;5.90;99.90;;;;;;10365446;28;20049;-66
2021/01/22 14:36:45;;;;;;;3.42;0.80;;;5.90;99.90;;;;;;10389785;28;20049;-65
2021/01/22 14:41:46;;;;;;;1.20;0.60;;;5.80;99.90;;;;;;10362948;28;20757;-65
2021/01/22 14:46:47;;;;;;;2.15;0.50;;;5.80;99.90;;;;;;10369619;28;20057;-65
2021/01/22 14:51:49;;;;;;;8.13;3.60;;;5.90;99.90;;;;;;10390084;28;20120;-63
2021/01/22 14:56:50;;;;;;;5.68;2.28;;;6.00;99.90;;;;;;10376741;28;20053;-63
2021/01/22 15:01:51;;;;;;;0.68;0.30;;;6.00;99.90;;;;;;10392783;28;20044;-63
2021/01/22 15:06:53;;;;;;;0.82;0.40;;;5.70;99.90;;;;;;10377683;28;20048;-63
2021/01/22 15:11:54;;;;;;;1.58;0.60;;;5.70;99.90;;;;;;10394006;28;20049;-63
2021/01/22 15:16:56;;;;;;;3.63;0.80;;;5.60;99.90;;;;;;10373440;28;22064;-63
2021/01/22 15:21:57;;;;;;;1.35;0.77;;;5.60;99.90;;;;;;10393250;28;20056;-63
2021/01/22 15:26:58;;;;;;;2.85;1.35;;;5.50;99.90;;;;;;10356412;28;20053;-62
2021/01/22 15:31:59;;;;;;;1.90;0.65;;;5.50;99.90;;;;;;10364641;28;20076;-63
2021/01/22 15:37:01;;;;;;;1.90;0.85;;;5.40;99.90;;;;;;10378832;28;20045;-62
2021/01/22 15:42:03;;;;;;;3.72;0.77;;;5.40;99.90;;;;;;10358729;28;20387;-63
2021/01/22 15:47:04;;;;;;;4.20;1.65;;;5.40;99.90;;;;;;10368620;28;20099;-63
2021/01/22 15:52:05;;;;;;;4.03;1.38;;;5.30;99.90;;;;;;10381582;28;20049;-63
2021/01/22 15:57:07;;;;;;;3.20;1.13;;;5.20;99.90;;;;;;10395582;28;20495;-63
2021/01/22 16:02:08;;;;;;;3.50;1.40;;;5.20;99.90;;;;;;10355782;28;20046;-64
2021/01/22 16:07:10;;;;;;;3.25;1.25;;;5.10;99.90;;;;;;10389399;28;20053;-63
2021/01/22 16:12:11;;;;;;;2.47;1.30;;;4.90;99.90;;;;;;10398127;28;20103;-63
2021/01/22 16:17:13;;;;;;;2.60;1.80;;;4.70;99.90;;;;;;10389292;28;20455;-63
2021/01/22 16:22:15;;;;;;;2.88;2.25;;;4.60;99.90;;;;;;10374288;28;20042;-63
2021/01/22 16:27:16;;;;;;;4.07;2.42;;;4.50;99.90;;;;;;10366517;28;20049;-64
2021/01/22 16:32:17;;;;;;;6.85;2.90;;;4.50;99.90;;;;;;10392581;28;20056;-68
2021/01/22 16:37:22;;;;;;;2.88;1.77;;;4.40;99.90;;;;;;10357129;28;20104;-68
2021/01/22 16:42:27;;;;;;;3.70;1.77;;;4.40;99.90;;;;;;10376981;28;20043;-67
2021/01/22 16:47:29;;;;;;;3.22;1.52;;;4.30;99.90;;;;;;10378624;28;20049;-67
2021/01/22 16:52:30;;;;;;;4.72;2.72;;;4.30;99.90;;;;;;10382463;28;20103;-67
2021/01/22 16:57:31;;;;;;;9.18;3.83;;;4.20;99.90;;;;;;10397178;28;20064;-66
2021/01/22 17:02:32;;;;;;;9.45;4.85;;;4.10;99.90;;;;;;10377819;28;20489;-66
2021/01/22 17:07:34;;;;;;;8.05;5.20;;;4.00;99.90;;;;;;10357700;28;20104;-66
2021/01/22 17:12:35;;;;;;;7.78;4.45;;;3.90;99.90;;;;;;10393411;28;20045;-66
2021/01/22 17:17:37;;;;;;;7.68;3.90;;;3.90;99.90;;;;;;10401424;28;20041;-65
2021/01/22 17:22:39;;;;;;;7.38;3.75;;;3.80;99.90;;;;;;10381179;28;20123;-65
2021/01/22 17:27:40;;;;;;;10.20;5.53;;;3.80;99.90;;;;;;10394713;28;20103;-66
2021/01/22 17:32:41;;;;;;;11.18;5.57;;;3.70;99.90;;;;;;10374756;28;20049;-67
2021/01/22 17:37:43;;;;;;;11.95;6.78;;;3.60;99.90;;;;;;10387191;28;20129;-66
2021/01/22 17:42:44;;;;;;;16.25;8.07;;;3.60;99.90;;;;;;10382144;28;20048;-67
2021/01/22 17:47:45;;;;;;;17.58;8.18;;;3.50;99.90;;;;;;10382279;28;20041;-66
2021/01/22 17:52:47;;;;;;;11.63;5.93;;;3.50;99.90;;;;;;10382456;28;20044;-67
2021/01/22 17:57:48;;;;;;;14.43;6.28;;;3.40;99.90;;;;;;10384937;28;20057;-66
2021/01/22 18:02:49;;;;;;;12.45;5.65;;;3.30;99.90;;;;;;10385801;28;20065;-67
2021/01/22 18:07:51;;;;;;;7.35;4.25;;;3.20;99.90;;;;;;10371408;28;20101;-67
2021/01/22 18:12:52;;;;;;;9.10;4.90;;;3.20;99.90;;;;;;10392143;28;20045;-68
2021/01/22 18:17:53;;;;;;;12.55;7.13;;;3.20;99.90;;;;;;10370180;28;20049;-68
2021/01/22 18:22:55;;;;;;;13.88;7.97;;;3.20;99.90;;;;;;10388599;28;20060;-67
2021/01/22 18:27:56;;;;;;;13.57;8.40;;;3.30;99.90;;;;;;10391762;28;20048;-67
2021/01/22 18:32:57;;;;;;;15.73;8.80;;;3.30;99.90;;;;;;10385675;28;20057;-68
2021/01/22 18:37:59;;;;;;;18.88;10.07;;;3.30;99.90;;;;;;10357247;28;20041;-68
2021/01/22 18:43:00;;;;;;;15.02;8.38;;;3.40;99.90;;;;;;10377977;28;20060;-68
2021/01/22 18:48:01;;;;;;;14.60;7.70;;;3.40;99.90;;;;;;10383121;28;20817;-70
2021/01/22 18:53:03;;;;;;;13.43;7.63;;;3.40;99.90;;;;;;10359354;28;20045;-70
2021/01/22 18:58:04;;;;;;;12.48;6.85;;;3.40;99.90;;;;;;10384255;28;20054;-70
2021/01/22 19:03:06;;;;;;;14.65;7.43;;;3.40;99.90;;;;;;10365929;28;20053;-71
2021/01/22 19:08:07;;;;;;;13.50;7.65;;;3.50;99.90;;;;;;10372255;28;20053;-70
2021/01/22 19:13:08;;;;;;;14.70;8.10;;;3.50;99.90;;;;;;10341496;28;20381;-69
2021/01/22 19:18:10;;;;;;;13.68;6.80;;;3.50;99.90;;;;;;10375392;28;20047;-70
2021/01/22 19:23:12;;;;;;;13.18;7.70;;;3.50;99.90;;;;;;10396084;28;20075;-73
2021/01/22 19:28:13;;;;;;;14.75;7.07;;;3.50;99.90;;;;;;10351965;28;20045;-71
2021/01/22 19:33:15;;;;;;;10.55;6.28;;;3.40;99.90;;;;;;10365190;28;20053;-72
2021/01/22 19:38:17;;;;;;;13.75;6.90;;;3.50;99.90;;;;;;10388097;28;20056;-71
2021/01/22 19:43:18;;;;;;;16.77;8.73;;;3.50;99.90;;;;;;10385051;28;20041;-70
2021/01/22 19:48:19;;;;;;;15.50;9.27;;;3.50;99.90;;;;;;10398308;28;20053;-70
2021/01/22 19:53:20;;;;;;;17.50;10.00;;;3.50;99.90;;;;;;10369763;28;20041;-70
2021/01/22 19:58:21;;;;;;;18.50;10.30;;;3.50;99.90;;;;;;10398521;28;20132;-71
2021/01/22 20:03:22;;;;;;;20.50;10.02;;;3.50;99.90;;;;;;10384744;28;20072;-70
2021/01/22 20:08:24;;;;;;;18.55;9.45;;;3.50;99.90;;;;;;10393389;28;20599;-69
2021/01/22 20:13:26;;;;;;;19.80;9.10;;;3.50;99.90;;;;;;10403354;28;20037;-68
2021/01/22 20:18:27;;;;;;;19.70;10.65;;;3.50;99.90;;;;;;10407031;28;20053;-69
2021/01/22 20:23:28;;;;;;;21.85;11.65;;;3.50;99.90;;;;;;10425915;28;20045;-70
2021/01/22 20:28:29;;;;;;;17.83;10.38;;;3.50;99.90;;;;;;10402310;28;20045;-71
2021/01/22 20:33:30;;;;;;;25.23;13.23;;;3.60;99.90;;;;;;10375195;28;20080;-70
2021/01/22 20:38:32;;;;;;;19.23;9.80;;;3.60;99.90;;;;;;10410526;28;20045;-70
2021/01/22 20:43:33;;;;;;;24.38;11.82;;;3.60;99.90;;;;;;10385543;28;20491;-68
2021/01/22 20:48:34;;;;;;;18.17;10.60;;;3.60;99.90;;;;;;10374474;28;20536;-68
2021/01/22 20:53:37;;;;;;;21.85;10.48;;;3.60;99.90;;;;;;10379655;28;20050;-69
2021/01/22 20:58:38;;;;;;;16.83;9.23;;;3.60;99.90;;;;;;10381468;28;20451;-69
2021/01/22 21:03:39;;;;;;;21.45;10.63;;;3.60;99.90;;;;;;10389878;28;20554;-69
2021/01/22 21:08:41;;;;;;;20.50;10.15;;;3.60;99.90;;;;;;10374817;28;20049;-71
2021/01/22 21:13:44;;;;;;;20.38;10.60;;;3.60;99.90;;;;;;10367113;28;20049;-71
2021/01/22 21:18:48;;;;;;;21.30;9.73;;;3.60;99.90;;;;;;10398819;28;20054;-69
2021/01/22 21:23:50;;;;;;;22.92;11.43;;;3.60;99.90;;;;;;10358608;28;20810;-70
2021/01/22 21:28:53;;;;;;;17.45;9.75;;;3.60;99.90;;;;;;10368705;28;20056;-69
2021/01/22 21:33:54;;;;;;;21.15;11.20;;;3.60;99.90;;;;;;10396639;28;20075;-70
2021/01/22 21:38:56;;;;;;;21.10;10.93;;;3.70;99.90;;;;;;10385830;28;20049;-71
2021/01/22 21:43:57;;;;;;;27.42;10.85;;;3.70;99.90;;;;;;10366923;28;20058;-71
2021/01/22 21:48:58;;;;;;;25.05;11.23;;;3.70;99.90;;;;;;10381326;28;20065;-71
2021/01/22 21:53:59;;;;;;;14.13;7.55;;;3.60;99.90;;;;;;10382106;28;20048;-69
2021/01/22 21:59:01;;;;;;;17.35;8.00;;;3.60;99.90;;;;;;10400134;28;20065;-71
2021/01/22 22:04:03;;;;;;;16.38;7.72;;;3.60;99.90;;;;;;10390101;28;20056;-71
2021/01/22 22:09:04;;;;;;;19.85;10.18;;;3.70;99.90;;;;;;10397253;28;20052;-70
2021/01/22 22:14:06;;;;;;;19.83;10.85;;;3.60;99.90;;;;;;10385468;28;20545;-69
2021/01/22 22:19:07;;;;;;;17.15;9.43;;;3.50;99.90;;;;;;10382996;28;20103;-69
2021/01/22 22:24:08;;;;;;;18.10;10.25;;;3.50;99.90;;;;;;10375937;28;20049;-71
2021/01/22 22:29:10;;;;;;;15.02;7.15;;;3.50;99.90;;;;;;10402644;28;20047;-71
2021/01/22 22:34:11;;;;;;;18.58;8.52;;;3.50;99.90;;;;;;10359586;28;20046;-71
2021/01/22 22:39:12;;;;;;;17.75;7.97;;;3.50;99.90;;;;;;10383210;28;20046;-72
2021/01/22 22:44:14;;;;;;;17.77;7.65;;;3.50;99.90;;;;;;10363124;28;20133;-71
2021/01/22 22:49:15;;;;;;;15.05;8.10;;;3.60;99.90;;;;;;10359099;28;20103;-70
2021/01/22 22:54:16;;;;;;;17.77;8.00;;;3.40;99.90;;;;;;10368913;28;20487;-69
2021/01/22 22:59:17;;;;;;;17.10;8.30;;;3.40;99.90;;;;;;10369675;28;20046;-68
2021/01/22 23:04:19;;;;;;;18.52;8.38;;;3.50;99.90;;;;;;10376396;28;20115;-69
2021/01/22 23:09:20;;;;;;;26.35;7.32;;;3.50;99.90;;;;;;10373481;28;20049;-70
2021/01/22 23:14:21;;;;;;;16.35;7.70;;;3.50;99.90;;;;;;10386755;28;20072;-69
2021/01/22 23:19:22;;;;;;;15.98;8.30;;;3.50;99.90;;;;;;10402719;28;20049;-70
2021/01/22 23:24:25;;;;;;;10.32;6.40;;;3.60;99.90;;;;;;10367295;28;20078;-70
2021/01/22 23:29:26;;;;;;;11.98;7.00;;;3.60;99.90;;;;;;10392307;28;20045;-67
2021/01/22 23:34:28;;;;;;;11.10;4.75;;;3.60;99.90;;;;;;10409222;28;20053;-69
2021/01/22 23:39:29;;;;;;;10.73;4.50;;;3.60;99.90;;;;;;10386702;28;20056;-70
2021/01/22 23:44:30;;;;;;;14.55;5.57;;;3.70;99.90;;;;;;10398121;28;20077;-68
2021/01/22 23:49:31;;;;;;;7.20;4.75;;;3.70;99.90;;;;;;10395835;28;20046;-69
2021/01/22 23:54:33;;;;;;;11.10;6.05;;;3.70;99.90;;;;;;10362013;28;20049;-68
2021/01/22 23:59:36;;;;;;;8.90;4.95;;;3.80;99.90;;;;;;10372148;28;20049;-68
